Time;durP1;ratioP1;P1;durP2;ratioP2;P2;SDS_P1;SDS_P2;PMS_P1;PMS_P2;Temp;Humidity;BMP_temperature;BMP_pressure;BME280_temperature;BME280_humidity;BME280_pressure;Samples;Min_cycle;Max_cycle;Signal;HPM_P1;HPM_P2
2022/09/21 00:01:33;;;;;;;5.85;2.63;;;;;;;;;;5058489;28;20934;-68
2022/09/21 00:04:01;;;;;;;5.13;3.20;;;;;;;;;;5051418;28;20068;-68
2022/09/21 00:06:28;;;;;;;7.30;2.45;;;;;;;;;;5055398;28;20047;-68
2022/09/21 00:08:55;;;;;;;4.68;2.17;;;;;;;;;;5056343;28;20052;-68
2022/09/21 00:11:23;;;;;;;5.07;2.85;;;;;;;;;;5040642;28;20080;-68
2022/09/21 00:13:53;;;;;;;4.38;2.40;;;;;;;;;;5042516;28;20551;-68
2022/09/21 00:16:20;;;;;;;4.63;2.53;;;;;;;;;;5064862;28;21520;-68
2022/09/21 00:18:47;;;;;;;6.57;3.33;;;;;;;;;;5049967;28;20048;-68
2022/09/21 00:21:14;;;;;;;9.93;4.07;;;;;;;;;;5056509;28;20045;-68
2022/09/21 00:23:41;;;;;;;5.57;2.50;;;;;;;;;;5052441;28;20512;-68
2022/09/21 00:26:14;;;;;;;6.03;2.88;;;;;;;;;;5046167;28;20045;-68
2022/09/21 00:28:41;;;;;;;5.25;3.55;;;;;;;;;;5048302;28;20112;-68
2022/09/21 00:31:09;;;;;;;4.93;3.20;;;;;;;;;;5045857;28;20045;-68
2022/09/21 00:33:36;;;;;;;5.00;3.45;;;;;;;;;;5049800;28;20934;-68
2022/09/21 00:36:06;;;;;;;8.35;3.15;;;;;;;;;;5056339;28;20040;-67
2022/09/21 00:38:32;;;;;;;6.07;3.58;;;;;;;;;;5043512;28;20037;-68
2022/09/21 00:40:58;;;;;;;5.93;3.33;;;;;;;;;;5042234;28;20074;-68
2022/09/21 00:43:25;;;;;;;4.20;2.60;;;;;;;;;;5042508;28;20087;-68
2022/09/21 00:45:54;;;;;;;6.18;3.20;;;;;;;;;;5049810;28;20036;-68
2022/09/21 00:48:20;;;;;;;5.57;3.92;;;;;;;;;;5058573;28;20101;-68
2022/09/21 00:50:49;;;;;;;8.10;3.97;;;;;;;;;;5062614;28;20060;-68
2022/09/21 00:53:15;;;;;;;4.75;3.28;;;;;;;;;;5052742;28;20059;-68
2022/09/21 00:55:44;;;;;;;5.60;3.55;;;;;;;;;;5059940;28;20132;-68
2022/09/21 00:58:14;;;;;;;8.45;3.92;;;;;;;;;;5057404;28;20037;-68
2022/09/21 01:00:40;;;;;;;5.05;3.40;;;;;;;;;;5037568;28;20132;-68
2022/09/21 01:03:07;;;;;;;11.13;4.15;;;;;;;;;;5054043;28;20664;-68
2022/09/21 01:05:33;;;;;;;8.13;3.53;;;;;;;;;;5065194;28;20190;-68
2022/09/21 01:08:01;;;;;;;6.30;3.28;;;;;;;;;;5059000;28;20043;-68
2022/09/21 01:10:29;;;;;;;7.40;3.97;;;;;;;;;;5059918;28;20045;-68
2022/09/21 01:12:55;;;;;;;6.13;3.90;;;;;;;;;;5055033;28;20044;-68
2022/09/21 01:15:40;;;;;;;7.07;4.05;;;;;;;;;;5049937;28;20048;-68
2022/09/21 01:18:06;;;;;;;5.97;3.97;;;;;;;;;;5059007;28;20069;-68
2022/09/21 01:20:51;;;;;;;10.90;4.43;;;;;;;;;;5057870;28;20354;-68
2022/09/21 01:23:20;;;;;;;5.95;3.67;;;;;;;;;;5050908;28;20063;-68
2022/09/21 01:26:05;;;;;;;5.25;3.53;;;;;;;;;;5055326;28;20048;-68
2022/09/21 01:28:43;;;;;;;5.13;3.28;;;;;;;;;;5059046;28;20088;-68
2022/09/21 01:31:13;;;;;;;5.60;3.45;;;;;;;;;;5057083;28;20606;-69
2022/09/21 01:33:43;;;;;;;4.55;3.30;;;;;;;;;;5058858;28;20045;-69
2022/09/21 01:36:13;;;;;;;5.45;4.07;;;;;;;;;;5059838;28;20656;-69
2022/09/21 01:38:44;;;;;;;10.02;4.15;;;;;;;;;;5056355;28;20054;-68
2022/09/21 01:41:13;;;;;;;8.57;3.28;;;;;;;;;;5047196;28;20783;-69
2022/09/21 01:43:42;;;;;;;5.78;4.13;;;;;;;;;;5055975;28;20053;-69
2022/09/21 01:46:12;;;;;;;6.40;3.80;;;;;;;;;;5055566;28;20539;-69
2022/09/21 01:48:40;;;;;;;8.75;4.07;;;;;;;;;;5047780;28;20040;-69
2022/09/21 01:51:08;;;;;;;11.23;4.65;;;;;;;;;;5053528;28;20784;-69
2022/09/21 01:53:37;;;;;;;6.95;4.25;;;;;;;;;;5058099;28;20860;-69
2022/09/21 01:56:20;;;;;;;7.45;3.38;;;;;;;;;;5042014;28;20041;-69
2022/09/21 01:59:06;;;;;;;17.33;4.45;;;;;;;;;;5053365;28;20744;-69
2022/09/21 02:01:35;;;;;;;10.70;3.47;;;;;;;;;;5039031;28;20051;-69
2022/09/21 02:04:03;;;;;;;11.60;3.85;;;;;;;;;;5047438;28;20128;-68
2022/09/21 02:06:30;;;;;;;6.03;3.45;;;;;;;;;;5050673;28;20125;-69
2022/09/21 02:08:57;;;;;;;7.88;3.55;;;;;;;;;;5045392;28;20041;-69
2022/09/21 02:11:23;;;;;;;6.80;3.92;;;;;;;;;;5048812;28;20553;-69
2022/09/21 02:13:51;;;;;;;5.90;3.72;;;;;;;;;;5057659;28;20128;-69
2022/09/21 02:16:55;;;;;;;6.15;4.05;;;;;;;;;;5072629;28;20200;-69
2022/09/21 02:19:32;;;;;;;4.35;3.05;;;;;;;;;;4962847;28;20042;-69
2022/09/21 02:22:03;;;;;;;6.28;3.35;;;;;;;;;;4973984;28;20552;-69
2022/09/21 02:24:36;;;;;;;4.78;3.50;;;;;;;;;;5011571;28;20059;-68
2022/09/21 02:27:03;;;;;;;9.43;4.38;;;;;;;;;;5057921;28;20194;-69
2022/09/21 02:29:32;;;;;;;7.30;3.40;;;;;;;;;;5055401;28;20514;-69
2022/09/21 02:32:25;;;;;;;6.45;3.40;;;;;;;;;;5060309;28;20099;-69
2022/09/21 02:34:51;;;;;;;;;;;;;;;;;;5041343;28;20056;-69
2022/09/21 02:37:30;;;;;;;6.85;3.88;;;;;;;;;;5053057;28;20396;-69
2022/09/21 02:40:08;;;;;;;9.32;3.53;;;;;;;;;;5048375;28;20048;-69
2022/09/21 02:42:36;;;;;;;6.93;4.22;;;;;;;;;;5055485;28;20032;-69
2022/09/21 02:45:35;;;;;;;11.10;4.22;;;;;;;;;;5046269;28;20102;-69
2022/09/21 02:48:01;;;;;;;13.85;5.82;;;;;;;;;;4992742;28;20044;-69
2022/09/21 02:50:41;;;;;;;14.82;4.25;;;;;;;;;;5045106;28;20254;-69
2022/09/21 02:53:09;;;;;;;7.35;3.45;;;;;;;;;;5049605;28;20052;-69
2022/09/21 02:55:35;;;;;;;8.32;3.92;;;;;;;;;;5075479;28;20049;-69
2022/09/21 02:58:04;;;;;;;8.90;3.45;;;;;;;;;;5058891;28;20070;-69
2022/09/21 03:00:30;;;;;;;6.57;3.80;;;;;;;;;;5042668;28;20045;-69
2022/09/21 03:02:56;;;;;;;7.05;3.33;;;;;;;;;;5047813;28;20082;-69
2022/09/21 03:05:22;;;;;;;8.77;5.22;;;;;;;;;;5051032;28;20529;-69
2022/09/21 03:07:48;;;;;;;4.43;3.30;;;;;;;;;;5041717;28;20037;-69
2022/09/21 03:10:14;;;;;;;7.20;3.40;;;;;;;;;;5035164;28;20159;-69
2022/09/21 03:12:43;;;;;;;6.53;3.88;;;;;;;;;;5057911;28;20044;-69
2022/09/21 03:15:09;;;;;;;6.18;4.40;;;;;;;;;;5047185;28;20067;-69
2022/09/21 03:17:35;;;;;;;8.07;3.72;;;;;;;;;;5048050;28;20101;-69
2022/09/21 03:20:01;;;;;;;4.93;3.03;;;;;;;;;;5050868;28;20037;-69
2022/09/21 03:22:27;;;;;;;5.53;3.38;;;;;;;;;;5052767;28;20052;-69
2022/09/21 03:24:56;;;;;;;6.65;3.42;;;;;;;;;;5057117;28;20052;-69
2022/09/21 03:27:23;;;;;;;5.88;3.72;;;;;;;;;;5047296;28;20055;-69
2022/09/21 03:29:49;;;;;;;13.02;4.10;;;;;;;;;;5050780;28;20507;-69
2022/09/21 03:32:15;;;;;;;6.07;3.40;;;;;;;;;;5057253;28;20047;-69
2022/09/21 03:34:41;;;;;;;8.77;3.70;;;;;;;;;;5043481;28;20075;-69
2022/09/21 03:37:08;;;;;;;6.63;3.80;;;;;;;;;;5060479;28;20076;-69
2022/09/21 03:39:35;;;;;;;9.27;4.05;;;;;;;;;;5050014;28;20124;-69
2022/09/21 03:42:02;;;;;;;4.45;3.42;;;;;;;;;;5053714;28;20094;-69
2022/09/21 03:44:29;;;;;;;6.97;3.30;;;;;;;;;;5051147;28;20163;-68
2022/09/21 03:46:56;;;;;;;6.78;4.45;;;;;;;;;;5047952;28;20029;-69
2022/09/21 03:49:22;;;;;;;8.85;3.75;;;;;;;;;;5047722;28;20453;-69
2022/09/21 03:51:49;;;;;;;5.70;3.00;;;;;;;;;;5034710;28;20242;-69
2022/09/21 03:54:15;;;;;;;6.47;4.03;;;;;;;;;;5044567;28;20053;-68
2022/09/21 03:56:41;;;;;;;6.15;4.40;;;;;;;;;;5048122;28;20051;-69
2022/09/21 03:59:07;;;;;;;8.10;3.38;;;;;;;;;;5048116;28;20071;-69
2022/09/21 04:01:33;;;;;;;5.55;3.33;;;;;;;;;;5050531;28;20568;-69
2022/09/21 04:03:59;;;;;;;8.43;3.95;;;;;;;;;;5049660;28;20098;-69
2022/09/21 04:06:25;;;;;;;8.05;4.20;;;;;;;;;;5056573;28;22474;-69
2022/09/21 04:08:53;;;;;;;6.00;3.70;;;;;;;;;;5050733;28;20045;-69
2022/09/21 04:11:21;;;;;;;7.70;3.35;;;;;;;;;;5055967;28;20037;-69
2022/09/21 04:13:55;;;;;;;9.63;3.85;;;;;;;;;;5046648;28;20029;-69
2022/09/21 04:16:21;;;;;;;6.88;3.10;;;;;;;;;;5054255;28;20052;-69
2022/09/21 04:18:49;;;;;;;6.53;3.45;;;;;;;;;;5059916;28;20646;-69
2022/09/21 04:21:16;;;;;;;5.00;3.08;;;;;;;;;;5052573;28;20044;-69
2022/09/21 04:23:42;;;;;;;5.60;3.45;;;;;;;;;;5050841;28;20053;-69
2022/09/21 04:26:18;;;;;;;5.80;3.15;;;;;;;;;;5056212;28;20041;-69
2022/09/21 04:28:44;;;;;;;6.22;3.72;;;;;;;;;;5060756;28;20041;-69
2022/09/21 04:31:10;;;;;;;6.38;4.03;;;;;;;;;;5056743;28;21351;-69
2022/09/21 04:33:36;;;;;;;5.55;3.70;;;;;;;;;;5055798;28;21311;-69
2022/09/21 04:36:03;;;;;;;6.93;3.63;;;;;;;;;;5039606;28;20123;-69
2022/09/21 04:38:30;;;;;;;6.97;3.55;;;;;;;;;;5055604;28;20073;-69
2022/09/21 04:40:57;;;;;;;5.28;4.50;;;;;;;;;;5056806;28;21888;-69
2022/09/21 04:43:24;;;;;;;11.05;4.78;;;;;;;;;;5062691;28;20048;-69
2022/09/21 04:45:51;;;;;;;8.23;3.65;;;;;;;;;;5054664;28;20888;-70
2022/09/21 04:48:17;;;;;;;5.07;3.63;;;;;;;;;;5079207;28;20200;-69
2022/09/21 04:50:43;;;;;;;5.50;3.42;;;;;;;;;;5052078;28;20041;-69
2022/09/21 04:53:09;;;;;;;8.68;4.68;;;;;;;;;;5049870;28;20052;-69
2022/09/21 04:55:35;;;;;;;8.15;3.85;;;;;;;;;;5059790;28;20041;-68
2022/09/21 04:58:02;;;;;;;8.02;3.88;;;;;;;;;;5059887;28;20082;-69
2022/09/21 05:00:28;;;;;;;5.57;3.63;;;;;;;;;;5063976;28;20040;-69
2022/09/21 05:02:54;;;;;;;8.73;3.50;;;;;;;;;;5073362;28;20041;-70
2022/09/21 05:05:47;;;;;;;11.93;4.70;;;;;;;;;;5069549;28;20049;-78
2022/09/21 05:10:01;;;;;;;9.65;3.72;;;;;;;;;;5060119;28;20059;-76
2022/09/21 05:11:02;;;;;;;9.57;4.28;;;;;;;;;;5071440;28;20512;-69
2022/09/21 05:13:28;;;;;;;5.80;3.50;;;;;;;;;;5074796;28;20981;-76
2022/09/21 05:15:54;;;;;;;9.05;3.90;;;;;;;;;;5068991;28;20090;-69
2022/09/21 05:18:20;;;;;;;9.10;4.82;;;;;;;;;;5077451;28;20147;-69
2022/09/21 05:20:53;;;;;;;5.88;4.05;;;;;;;;;;5075416;28;20047;-69
2022/09/21 05:23:42;;;;;;;5.63;3.97;;;;;;;;;;5072415;28;20060;-69
2022/09/21 05:26:09;;;;;;;5.57;4.22;;;;;;;;;;5048221;28;20771;-69
2022/09/21 05:28:50;;;;;;;8.18;3.70;;;;;;;;;;5073501;28;20044;-76
2022/09/21 05:31:17;;;;;;;9.27;4.53;;;;;;;;;;5073809;28;20047;-70
2022/09/21 05:33:56;;;;;;;9.00;4.10;;;;;;;;;;5057495;28;20483;-71
2022/09/21 05:36:28;;;;;;;6.18;3.70;;;;;;;;;;5070633;28;20044;-70
2022/09/21 05:38:55;;;;;;;;;;;;;;;;;;5050515;28;20090;-69
2022/09/21 05:41:21;;;;;;;7.00;3.85;;;;;;;;;;5074637;28;20033;-70
2022/09/21 05:43:47;;;;;;;7.88;4.35;;;;;;;;;;5073211;28;20212;-70
2022/09/21 05:46:26;;;;;;;5.32;3.70;;;;;;;;;;5064275;28;20142;-70
2022/09/21 05:49:00;;;;;;;8.20;4.03;;;;;;;;;;5070877;28;20123;-70
2022/09/21 05:51:32;;;;;;;7.18;4.03;;;;;;;;;;5068895;28;20044;-70
2022/09/21 05:54:18;;;;;;;6.10;3.50;;;;;;;;;;5072775;28;20079;-73
2022/09/21 05:56:47;;;;;;;7.70;4.07;;;;;;;;;;5063110;28;20048;-72
2022/09/21 05:59:28;;;;;;;8.90;4.20;;;;;;;;;;5067886;28;20040;-70
2022/09/21 06:02:13;;;;;;;6.78;4.15;;;;;;;;;;5072020;28;20036;-71
2022/09/21 06:04:39;;;;;;;12.77;4.05;;;;;;;;;;5064410;28;20052;-69
2022/09/21 06:07:05;;;;;;;9.23;4.28;;;;;;;;;;5064301;28;20040;-69
2022/09/21 06:09:32;;;;;;;9.25;3.80;;;;;;;;;;5074330;28;20106;-69
2022/09/21 06:11:58;;;;;;;8.88;4.25;;;;;;;;;;5073117;28;20083;-69
2022/09/21 06:14:25;;;;;;;4.93;3.60;;;;;;;;;;5071319;28;20052;-69
2022/09/21 06:16:51;;;;;;;7.15;4.25;;;;;;;;;;5070327;28;20541;-69
2022/09/21 06:19:18;;;;;;;9.45;4.40;;;;;;;;;;5068441;28;20063;-68
2022/09/21 06:21:44;;;;;;;7.68;4.60;;;;;;;;;;5069505;28;20041;-69
2022/09/21 06:24:10;;;;;;;8.70;5.82;;;;;;;;;;5070657;28;20128;-68
2022/09/21 06:26:37;;;;;;;9.40;4.60;;;;;;;;;;5070627;28;20127;-69
2022/09/21 06:29:03;;;;;;;9.93;4.45;;;;;;;;;;5050091;28;20044;-69
2022/09/21 06:31:29;;;;;;;9.25;3.75;;;;;;;;;;5073429;28;20046;-69
2022/09/21 06:33:56;;;;;;;8.88;5.63;;;;;;;;;;5069500;28;20041;-69
2022/09/21 06:36:22;;;;;;;17.35;7.35;;;;;;;;;;5073247;28;20217;-69
2022/09/21 06:38:48;;;;;;;19.67;5.15;;;;;;;;;;5072345;28;20939;-69
2022/09/21 06:41:15;;;;;;;19.15;6.10;;;;;;;;;;5071698;28;20040;-68
2022/09/21 06:43:41;;;;;;;13.00;4.55;;;;;;;;;;5068356;28;20045;-68
2022/09/21 06:46:07;;;;;;;12.02;4.32;;;;;;;;;;5067636;28;20037;-71
2022/09/21 06:48:34;;;;;;;19.77;4.63;;;;;;;;;;5071047;28;20043;-69
2022/09/21 06:51:01;;;;;;;7.90;4.50;;;;;;;;;;5072924;28;20759;-69
2022/09/21 06:53:28;;;;;;;6.68;4.00;;;;;;;;;;5075093;28;20045;-68
2022/09/21 06:55:59;;;;;;;19.52;5.53;;;;;;;;;;5074006;28;20593;-69
2022/09/21 06:58:25;;;;;;;12.98;4.93;;;;;;;;;;5076427;28;20032;-68
2022/09/21 07:00:52;;;;;;;15.82;5.18;;;;;;;;;;5072630;28;20055;-68
2022/09/21 07:03:18;;;;;;;13.57;4.63;;;;;;;;;;5074320;28;20052;-69
2022/09/21 07:05:45;;;;;;;7.32;4.07;;;;;;;;;;5070644;28;20122;-68
2022/09/21 07:08:11;;;;;;;8.32;3.47;;;;;;;;;;5073048;28;20037;-69
2022/09/21 07:10:37;;;;;;;8.50;4.20;;;;;;;;;;5073097;28;20044;-70
2022/09/21 07:13:04;;;;;;;9.73;4.07;;;;;;;;;;5074269;28;20072;-68
2022/09/21 07:15:31;;;;;;;12.00;4.53;;;;;;;;;;5075006;28;20664;-68
2022/09/21 07:17:57;;;;;;;14.40;4.47;;;;;;;;;;5075090;28;20045;-69
2022/09/21 07:20:23;;;;;;;8.13;4.30;;;;;;;;;;5073263;28;20036;-69
2022/09/21 07:22:50;;;;;;;6.18;4.05;;;;;;;;;;5065688;28;20060;-69
2022/09/21 07:25:16;;;;;;;18.00;4.18;;;;;;;;;;5075472;28;20116;-69
2022/09/21 07:27:42;;;;;;;8.13;3.67;;;;;;;;;;5090620;28;20044;-69
2022/09/21 07:30:08;;;;;;;12.13;4.30;;;;;;;;;;5073813;28;20037;-69
2022/09/21 07:32:35;;;;;;;21.42;6.38;;;;;;;;;;5073445;28;20049;-70
2022/09/21 07:35:01;;;;;;;21.55;6.85;;;;;;;;;;5072648;28;20040;-68
2022/09/21 07:37:28;;;;;;;12.95;5.22;;;;;;;;;;5073485;28;20135;-68
2022/09/21 07:39:55;;;;;;;9.65;5.40;;;;;;;;;;5073862;28;20048;-69
2022/09/21 07:42:22;;;;;;;16.10;5.13;;;;;;;;;;5066813;28;20048;-69
2022/09/21 07:44:49;;;;;;;26.13;7.18;;;;;;;;;;5074476;28;20043;-69
2022/09/21 07:47:15;;;;;;;12.68;4.00;;;;;;;;;;5072633;28;20063;-69
2022/09/21 07:49:42;;;;;;;11.60;4.20;;;;;;;;;;5074404;28;20044;-69
2022/09/21 07:52:08;;;;;;;13.98;4.82;;;;;;;;;;5074988;28;20042;-69
2022/09/21 07:54:35;;;;;;;10.73;3.78;;;;;;;;;;5055267;28;20048;-69
2022/09/21 07:59:46;;;;;;;9.45;4.88;;;;;;;;;;5074904;28;20048;-69
2022/09/21 08:02:12;;;;;;;9.05;4.10;;;;;;;;;;5078234;28;20545;-69
2022/09/21 08:04:38;;;;;;;6.43;3.17;;;;;;;;;;5076354;28;20901;-69
2022/09/21 08:07:04;;;;;;;9.20;3.80;;;;;;;;;;5077913;28;20561;-69
2022/09/21 08:09:30;;;;;;;8.68;4.18;;;;;;;;;;5070805;28;20067;-69
2022/09/21 08:12:00;;;;;;;9.70;3.60;;;;;;;;;;5076702;28;20102;-69
2022/09/21 08:14:26;;;;;;;9.68;4.53;;;;;;;;;;5075134;28;20066;-69
2022/09/21 08:16:52;;;;;;;7.85;3.50;;;;;;;;;;5076381;28;20068;-69
2022/09/21 08:19:19;;;;;;;9.23;3.50;;;;;;;;;;5078347;28;20713;-69
2022/09/21 08:21:51;;;;;;;9.50;4.28;;;;;;;;;;5077534;28;20118;-69
2022/09/21 08:24:18;;;;;;;10.18;3.38;;;;;;;;;;5074641;28;20041;-69
2022/09/21 08:26:45;;;;;;;15.05;4.70;;;;;;;;;;5077133;28;20049;-69
2022/09/21 08:29:13;;;;;;;10.00;4.75;;;;;;;;;;5076840;28;20048;-69
2022/09/21 08:31:39;;;;;;;9.00;3.28;;;;;;;;;;5077227;28;20083;-69
2022/09/21 08:34:05;;;;;;;8.15;3.35;;;;;;;;;;5067756;28;20036;-69
2022/09/21 08:36:31;;;;;;;6.57;3.67;;;;;;;;;;5070186;28;21170;-69
2022/09/21 08:38:57;;;;;;;6.45;3.50;;;;;;;;;;5076608;28;20051;-69
2022/09/21 08:41:23;;;;;;;6.32;3.10;;;;;;;;;;5076120;28;20048;-69
2022/09/21 08:43:53;;;;;;;5.80;3.33;;;;;;;;;;5076474;28;20530;-69
2022/09/21 08:46:20;;;;;;;5.13;3.55;;;;;;;;;;5076180;28;20128;-69
2022/09/21 08:48:50;;;;;;;9.38;4.70;;;;;;;;;;5076196;28;20040;-69
2022/09/21 08:51:24;;;;;;;6.43;3.35;;;;;;;;;;5075618;28;20616;-69
2022/09/21 08:53:52;;;;;;;6.57;3.67;;;;;;;;;;5074432;28;20044;-69
2022/09/21 08:56:20;;;;;;;7.07;4.00;;;;;;;;;;5068911;28;20040;-69
2022/09/21 08:58:46;;;;;;;12.40;4.60;;;;;;;;;;5077689;28;20044;-69
2022/09/21 09:01:30;;;;;;;8.63;4.05;;;;;;;;;;5075720;28;20072;-69
2022/09/21 09:04:16;;;;;;;16.92;4.82;;;;;;;;;;5073962;28;20094;-69
2022/09/21 09:06:42;;;;;;;8.63;3.92;;;;;;;;;;5075668;28;20679;-69
2022/09/21 09:09:08;;;;;;;7.60;3.65;;;;;;;;;;5073100;28;20197;-69
2022/09/21 09:11:53;;;;;;;15.32;4.32;;;;;;;;;;5075132;28;20101;-69
2022/09/21 09:14:22;;;;;;;7.65;3.47;;;;;;;;;;5057518;28;20044;-69
2022/09/21 09:16:48;;;;;;;9.90;3.50;;;;;;;;;;5075430;28;20573;-69
2022/09/21 09:19:20;;;;;;;9.48;2.80;;;;;;;;;;5075153;28;20896;-70
2022/09/21 09:21:46;;;;;;;;;;;;;;;;;;5075227;28;20057;-69
2022/09/21 09:24:31;;;;;;;7.25;3.20;;;;;;;;;;5066498;28;19920;-69
2022/09/21 09:27:07;;;;;;;5.43;2.42;;;;;;;;;;5074502;28;20048;-69
2022/09/21 09:29:43;;;;;;;8.52;4.50;;;;;;;;;;5075126;28;20525;-69
2022/09/21 09:32:12;;;;;;;7.97;3.75;;;;;;;;;;5075171;28;20045;-69
2022/09/21 09:34:41;;;;;;;9.13;3.67;;;;;;;;;;5072359;28;20045;-69
2022/09/21 09:37:15;;;;;;;9.20;2.72;;;;;;;;;;5075597;28;20033;-69
2022/09/21 09:39:44;;;;;;;5.63;3.42;;;;;;;;;;5077072;28;20051;-70
2022/09/21 09:42:13;;;;;;;9.10;3.08;;;;;;;;;;5075399;28;20163;-70
2022/09/21 09:44:53;;;;;;;4.55;2.08;;;;;;;;;;5075088;28;20041;-69
2022/09/21 09:47:29;;;;;;;5.00;2.75;;;;;;;;;;5074419;28;20036;-70
2022/09/21 09:49:58;;;;;;;6.35;2.50;;;;;;;;;;5077329;28;20593;-70
2022/09/21 09:52:25;;;;;;;8.60;2.50;;;;;;;;;;5073991;28;20123;-69
2022/09/21 09:54:52;;;;;;;5.20;2.53;;;;;;;;;;5075752;28;20084;-69
2022/09/21 09:57:24;;;;;;;4.47;1.90;;;;;;;;;;5073771;28;20047;-69
2022/09/21 09:59:50;;;;;;;;;;;;;;;;;;5076239;28;20045;-69
2022/09/21 10:02:21;;;;;;;5.07;2.40;;;;;;;;;;5073471;28;19924;-69
2022/09/21 10:05:05;;;;;;;6.38;2.83;;;;;;;;;;5074459;28;20064;-69
2022/09/21 10:07:44;;;;;;;6.68;3.80;;;;;;;;;;5057106;28;20068;-69
2022/09/21 10:10:30;;;;;;;3.25;2.22;;;;;;;;;;5077151;28;21026;-69
2022/09/21 10:13:02;;;;;;;5.03;1.90;;;;;;;;;;5073965;28;20060;-69
2022/09/21 10:15:28;;;;;;;;;;;;;;;;;;5076384;28;20052;-69
2022/09/21 10:18:00;;;;;;;6.38;2.05;;;;;;;;;;5075596;28;19921;-69
2022/09/21 10:20:26;;;;;;;5.90;1.88;;;;;;;;;;5074830;28;20515;-69
2022/09/21 10:22:56;;;;;;;3.72;2.08;;;;;;;;;;5071954;28;20525;-69
2022/09/21 10:25:23;;;;;;;6.18;2.80;;;;;;;;;;5073774;28;20652;-69
2022/09/21 10:27:50;;;;;;;4.63;2.58;;;;;;;;;;5076983;28;20044;-69
2022/09/21 10:30:37;;;;;;;3.85;1.77;;;;;;;;;;5076380;28;20526;-69
2022/09/21 10:33:04;;;;;;;3.97;1.85;;;;;;;;;;5074587;28;20045;-69
2022/09/21 10:35:30;;;;;;;8.70;2.08;;;;;;;;;;5076570;28;20663;-69
2022/09/21 10:38:16;;;;;;;10.88;1.98;;;;;;;;;;5075602;28;20931;-69
2022/09/21 10:40:43;;;;;;;5.30;2.00;;;;;;;;;;5073861;28;20067;-69
2022/09/21 10:43:23;;;;;;;4.40;1.55;;;;;;;;;;5073657;28;20045;-69
2022/09/21 10:45:55;;;;;;;5.72;1.83;;;;;;;;;;5074123;28;20040;-69
2022/09/21 10:48:23;;;;;;;4.40;1.85;;;;;;;;;;5075643;28;20602;-69
2022/09/21 10:50:50;;;;;;;5.97;1.90;;;;;;;;;;5074202;28;20601;-69
2022/09/21 10:53:27;;;;;;;5.80;2.33;;;;;;;;;;5075872;28;20057;-69
2022/09/21 10:56:05;;;;;;;4.50;2.45;;;;;;;;;;5074036;28;20041;-69
2022/09/21 10:58:31;;;;;;;3.30;1.88;;;;;;;;;;5074095;28;20051;-69
2022/09/21 11:01:09;;;;;;;3.15;1.40;;;;;;;;;;5071705;28;20124;-69
2022/09/21 11:03:41;;;;;;;4.50;1.60;;;;;;;;;;5074642;28;20049;-69
2022/09/21 11:06:13;;;;;;;5.70;2.00;;;;;;;;;;5075944;28;20036;-69
2022/09/21 11:08:50;;;;;;;2.58;1.35;;;;;;;;;;5076175;28;20041;-69
2022/09/21 11:11:35;;;;;;;2.55;1.45;;;;;;;;;;5066987;28;20075;-69
2022/09/21 11:14:11;;;;;;;3.22;2.38;;;;;;;;;;5074574;28;20048;-69
2022/09/21 11:16:41;;;;;;;3.30;1.55;;;;;;;;;;5075400;28;20041;-69
2022/09/21 11:19:16;;;;;;;2.50;1.60;;;;;;;;;;5074665;28;20045;-69
2022/09/21 11:21:55;;;;;;;2.75;1.40;;;;;;;;;;5065545;28;20064;-69
2022/09/21 11:24:39;;;;;;;2.90;1.55;;;;;;;;;;5066098;28;20078;-69
2022/09/21 11:27:23;;;;;;;21.83;4.75;;;;;;;;;;5033484;28;20068;-69
2022/09/21 11:29:54;;;;;;;28.83;4.72;;;;;;;;;;5034363;28;20041;-70
2022/09/21 11:32:42;;;;;;;26.42;4.85;;;;;;;;;;5066326;28;20597;-67
2022/09/21 11:35:29;;;;;;;11.63;2.47;;;;;;;;;;5037530;28;20050;-67
2022/09/21 11:38:03;;;;;;;13.63;2.80;;;;;;;;;;5070712;28;20045;-68
2022/09/21 11:40:48;;;;;;;10.63;2.25;;;;;;;;;;5069703;28;20141;-68
2022/09/21 11:43:14;;;;;;;16.25;3.15;;;;;;;;;;5038334;28;20046;-68
2022/09/21 11:45:49;;;;;;;11.52;3.70;;;;;;;;;;5038116;28;20048;-68
2022/09/21 11:48:34;;;;;;;7.22;2.67;;;;;;;;;;5038433;28;20181;-68
2022/09/21 11:51:03;;;;;;;5.95;2.10;;;;;;;;;;5037808;28;20049;-68
2022/09/21 11:53:52;;;;;;;4.50;1.75;;;;;;;;;;5070673;28;20041;-68
2022/09/21 11:56:18;;;;;;;7.80;2.83;;;;;;;;;;5037508;28;20041;-68
2022/09/21 11:58:56;;;;;;;4.45;1.60;;;;;;;;;;5069548;28;20075;-68
2022/09/21 12:01:38;;;;;;;4.43;2.00;;;;;;;;;;5035152;28;20038;-68
2022/09/21 12:04:14;;;;;;;3.50;1.55;;;;;;;;;;5070153;28;20042;-68
2022/09/21 12:06:57;;;;;;;12.38;2.40;;;;;;;;;;5045160;28;20052;-68
2022/09/21 12:09:33;;;;;;;4.80;1.83;;;;;;;;;;5034433;28;20038;-68
2022/09/21 12:12:14;;;;;;;10.05;2.60;;;;;;;;;;5066021;28;20746;-68
2022/09/21 12:14:52;;;;;;;5.68;1.73;;;;;;;;;;5038608;28;20053;-69
2022/09/21 12:17:37;;;;;;;10.98;2.35;;;;;;;;;;5069674;28;20050;-69
2022/09/21 12:20:23;;;;;;;2.30;1.40;;;;;;;;;;5068816;28;20056;-68
2022/09/21 12:22:50;;;;;;;5.80;1.77;;;;;;;;;;5063504;28;20125;-68
2022/09/21 12:25:22;;;;;;;4.68;2.25;;;;;;;;;;5077069;28;20102;-68
2022/09/21 12:27:49;;;;;;;;;;;;;;;;;;5076021;28;20060;-69
2022/09/21 12:30:19;;;;;;;5.90;1.92;;;;;;;;;;5074371;28;19920;-68
2022/09/21 12:32:51;;;;;;;6.18;2.53;;;;;;;;;;5074681;28;20098;-67
2022/09/21 12:35:22;;;;;;;4.10;1.95;;;;;;;;;;5075664;28;20039;-68
2022/09/21 12:38:11;;;;;;;3.90;1.40;;;;;;;;;;5076528;28;20492;-69
2022/09/21 12:40:42;;;;;;;5.00;1.60;;;;;;;;;;5043376;28;20044;-68
2022/09/21 12:43:11;;;;;;;5.10;1.63;;;;;;;;;;5074856;28;20041;-69
2022/09/21 12:45:57;;;;;;;3.17;1.63;;;;;;;;;;5076630;28;20090;-68
2022/09/21 12:48:35;;;;;;;5.70;2.13;;;;;;;;;;5093668;28;20052;-68
2022/09/21 12:51:04;;;;;;;5.63;1.60;;;;;;;;;;5076225;28;20037;-69
2022/09/21 12:53:32;;;;;;;5.20;1.83;;;;;;;;;;5076037;28;20126;-69
2022/09/21 12:56:13;;;;;;;2.80;1.83;;;;;;;;;;5075723;28;20040;-68
2022/09/21 12:58:39;;;;;;;6.68;2.13;;;;;;;;;;5074657;28;20029;-69
2022/09/21 13:01:05;;;;;;;14.32;2.53;;;;;;;;;;5075550;28;20041;-68
2022/09/21 13:03:45;;;;;;;8.90;2.10;;;;;;;;;;5075234;28;20047;-68
2022/09/21 13:06:23;;;;;;;3.13;1.27;;;;;;;;;;5075314;28;20516;-69
2022/09/21 13:08:50;;;;;;;5.45;2.00;;;;;;;;;;5074611;28;20106;-68
2022/09/21 13:11:20;;;;;;;4.70;1.80;;;;;;;;;;5074184;28;20044;-68
2022/09/21 13:13:58;;;;;;;6.00;1.73;;;;;;;;;;5074827;28;20047;-69
2022/09/21 13:16:24;;;;;;;3.33;1.98;;;;;;;;;;5075753;28;20051;-69
2022/09/21 13:18:58;;;;;;;3.30;1.73;;;;;;;;;;5073559;28;20106;-68
2022/09/21 13:21:25;;;;;;;14.85;4.05;;;;;;;;;;5077100;28;20041;-69
2022/09/21 13:24:01;;;;;;;8.20;2.33;;;;;;;;;;5076106;28;20045;-68
2022/09/21 13:26:37;;;;;;;6.72;2.35;;;;;;;;;;5076435;28;20491;-69
2022/09/21 13:29:05;;;;;;;5.38;2.03;;;;;;;;;;5066307;28;20113;-68
2022/09/21 13:31:42;;;;;;;3.50;2.30;;;;;;;;;;5076132;28;20067;-69
2022/09/21 13:34:22;;;;;;;3.13;1.60;;;;;;;;;;5075572;28;20585;-69
2022/09/21 13:37:07;;;;;;;17.73;3.13;;;;;;;;;;5077966;28;20051;-69
2022/09/21 13:39:33;;;;;;;8.50;2.00;;;;;;;;;;5075027;28;20076;-69
2022/09/21 13:42:19;;;;;;;8.60;2.00;;;;;;;;;;5075378;28;20045;-69
2022/09/21 13:44:45;;;;;;;4.05;1.90;;;;;;;;;;5091541;28;20044;-69
2022/09/21 13:47:13;;;;;;;2.30;1.58;;;;;;;;;;5057200;28;20032;-69
2022/09/21 13:49:49;;;;;;;3.53;1.17;;;;;;;;;;5073719;28;20588;-69
2022/09/21 13:52:16;;;;;;;25.60;4.15;;;;;;;;;;5075523;28;20926;-69
2022/09/21 13:54:45;;;;;;;23.45;4.40;;;;;;;;;;5068598;28;20133;-69
2022/09/21 13:57:31;;;;;;;5.45;1.98;;;;;;;;;;5074512;28;20078;-69
2022/09/21 14:00:12;;;;;;;2.92;1.73;;;;;;;;;;5051051;28;20056;-69
2022/09/21 14:02:53;;;;;;;5.85;1.50;;;;;;;;;;5075899;28;20040;-68
2022/09/21 14:05:22;;;;;;;4.35;2.85;;;;;;;;;;5075489;28;20127;-68
2022/09/21 14:07:53;;;;;;;8.32;2.28;;;;;;;;;;5075442;28;20041;-70
2022/09/21 14:10:21;;;;;;;9.05;2.35;;;;;;;;;;5074494;28;20045;-68
2022/09/21 14:12:47;;;;;;;12.13;2.55;;;;;;;;;;5074218;28;20270;-69
2022/09/21 14:15:18;;;;;;;5.05;2.55;;;;;;;;;;5074038;28;20106;-68
2022/09/21 14:17:44;;;;;;;4.53;1.85;;;;;;;;;;5074175;28;20040;-69
2022/09/21 14:20:31;;;;;;;5.30;1.92;;;;;;;;;;5074617;28;20155;-69
2022/09/21 14:23:15;;;;;;;7.13;1.83;;;;;;;;;;5074653;28;20198;-69
2022/09/21 14:25:52;;;;;;;5.18;1.63;;;;;;;;;;5072626;28;20037;-69
2022/09/21 14:28:27;;;;;;;7.78;1.35;;;;;;;;;;5073623;28;20050;-69
2022/09/21 14:30:56;;;;;;;12.02;2.70;;;;;;;;;;5073037;28;20135;-68
2022/09/21 14:33:25;;;;;;;6.43;2.03;;;;;;;;;;5073169;28;20036;-69
2022/09/21 14:35:51;;;;;;;3.28;1.58;;;;;;;;;;5073646;28;20685;-69
2022/09/21 14:38:24;;;;;;;5.15;1.40;;;;;;;;;;5067873;28;20588;-68
2022/09/21 14:40:51;;;;;;;5.40;1.58;;;;;;;;;;5075427;28;20186;-69
2022/09/21 14:43:21;;;;;;;8.15;2.97;;;;;;;;;;5075637;28;20131;-69
2022/09/21 14:45:56;;;;;;;9.20;2.10;;;;;;;;;;5066639;28;20106;-69
2022/09/21 14:48:29;;;;;;;4.45;1.98;;;;;;;;;;5074621;28;20039;-69
2022/09/21 14:51:07;;;;;;;9.40;3.25;;;;;;;;;;5075054;28;20128;-69
2022/09/21 14:53:40;;;;;;;5.95;2.00;;;;;;;;;;5074278;28;20059;-69
2022/09/21 14:56:21;;;;;;;3.10;1.60;;;;;;;;;;5072924;28;20060;-68
2022/09/21 14:58:53;;;;;;;5.03;1.80;;;;;;;;;;5072849;28;20227;-69
2022/09/21 15:01:21;;;;;;;5.72;1.80;;;;;;;;;;5072633;28;20130;-69
2022/09/21 15:03:55;;;;;;;3.33;1.27;;;;;;;;;;5072501;28;20036;-68
2022/09/21 15:12:26;;;;;;;3.70;2.13;;;;;;;;;;5075989;28;20052;-69
2022/09/21 15:15:00;;;;;;;1.98;1.45;;;;;;;;;;5047217;28;20486;-69